sensor_id;sensor_type;location;lat;lon;timestamp;pressure;altitude;pressure_sealevel;temperature;humidity
76598;BME280;65486;53.144;18.134;2023-03-01T00:02:05;102522.04;;;-3.38;72.40
76598;BME280;65486;53.144;18.134;2023-03-01T00:04:34;102522.58;;;-3.41;72.57
76598;BME280;65486;53.144;18.134;2023-03-01T00:07:02;102526.41;;;-3.42;73.26
76598;BME280;65486;53.144;18.134;2023-03-01T00:09:37;102521.55;;;-3.42;72.98
76598;BME280;65486;53.144;18.134;2023-03-01T00:12:05;102525.45;;;-3.44;72.87
76598;BME280;65486;53.144;18.134;2023-03-01T00:14:33;102526.16;;;-3.47;72.92
76598;BME280;65486;53.144;18.134;2023-03-01T00:17:00;102523.17;;;-3.48;73.25
76598;BME280;65486;53.144;18.134;2023-03-01T00:19:26;102524.75;;;-3.50;73.17
76598;BME280;65486;53.144;18.134;2023-03-01T00:21:52;102516.63;;;-3.53;73.06
76598;BME280;65486;53.144;18.134;2023-03-01T00:24:19;102506.92;;;-3.53;72.97
76598;BME280;65486;53.144;18.134;2023-03-01T00:26:45;102500.55;;;-3.52;73.16
76598;BME280;65486;53.144;18.134;2023-03-01T00:29:14;102502.70;;;-3.52;73.06
76598;BME280;65486;53.144;18.134;2023-03-01T00:31:42;102491.37;;;-3.61;73.11
76598;BME280;65486;53.144;18.134;2023-03-01T00:34:09;102503.52;;;-3.59;73.26
76598;BME280;65486;53.144;18.134;2023-03-01T00:36:37;102509.30;;;-3.63;73.30
76598;BME280;65486;53.144;18.134;2023-03-01T00:39:10;102512.31;;;-3.65;73.45
76598;BME280;65486;53.144;18.134;2023-03-01T00:41:38;102509.93;;;-3.64;73.34
76598;BME280;65486;53.144;18.134;2023-03-01T00:44:05;102504.10;;;-3.63;73.52
76598;BME280;65486;53.144;18.134;2023-03-01T00:46:32;102497.10;;;-3.63;73.44
76598;BME280;65486;53.144;18.134;2023-03-01T00:48:59;102489.40;;;-3.64;73.51
76598;BME280;65486;53.144;18.134;2023-03-01T00:51:30;102485.16;;;-3.65;73.61
76598;BME280;65486;53.144;18.134;2023-03-01T00:54:04;102481.06;;;-3.68;73.39
76598;BME280;65486;53.144;18.134;2023-03-01T00:56:30;102484.99;;;-3.65;73.56
76598;BME280;65486;53.144;18.134;2023-03-01T00:59:01;102482.94;;;-3.64;73.53
76598;BME280;65486;53.144;18.134;2023-03-01T01:01:29;102474.69;;;-3.67;73.44
76598;BME280;65486;53.144;18.134;2023-03-01T01:03:57;102471.46;;;-3.70;73.33
76598;BME280;65486;53.144;18.134;2023-03-01T01:06:26;102471.96;;;-3.73;73.31
76598;BME280;65486;53.144;18.134;2023-03-01T01:08:54;102473.16;;;-3.75;73.42
76598;BME280;65486;53.144;18.134;2023-03-01T01:11:23;102465.38;;;-3.77;73.34
76598;BME280;65486;53.144;18.134;2023-03-01T01:13:53;102463.11;;;-3.78;73.78
76598;BME280;65486;53.144;18.134;2023-03-01T01:16:21;102460.94;;;-3.80;73.73
76598;BME280;65486;53.144;18.134;2023-03-01T01:18:51;102461.73;;;-3.82;73.72
76598;BME280;65486;53.144;18.134;2023-03-01T01:21:22;102447.59;;;-3.89;73.75
76598;BME280;65486;53.144;18.134;2023-03-01T01:23:50;102457.98;;;-3.85;73.98
76598;BME280;65486;53.144;18.134;2023-03-01T01:26:21;102455.19;;;-3.87;73.95
76598;BME280;65486;53.144;18.134;2023-03-01T01:28:49;102450.15;;;-3.87;74.25
76598;BME280;65486;53.144;18.134;2023-03-01T01:31:17;102439.77;;;-3.84;74.03
76598;BME280;65486;53.144;18.134;2023-03-01T01:33:48;102442.02;;;-3.83;74.01
76598;BME280;65486;53.144;18.134;2023-03-01T01:36:16;102442.80;;;-3.84;73.95
76598;BME280;65486;53.144;18.134;2023-03-01T01:38:53;102440.81;;;-3.84;74.00
76598;BME280;65486;53.144;18.134;2023-03-01T01:41:21;102438.48;;;-3.81;74.11
76598;BME280;65486;53.144;18.134;2023-03-01T01:44:21;102429.66;;;-3.80;74.05
76598;BME280;65486;53.144;18.134;2023-03-01T01:47:18;102427.88;;;-3.80;74.04
76598;BME280;65486;53.144;18.134;2023-03-01T01:49:54;102431.83;;;-3.83;74.01
76598;BME280;65486;53.144;18.134;2023-03-01T01:52:29;102431.95;;;-3.85;74.08
76598;BME280;65486;53.144;18.134;2023-03-01T01:57:37;102412.39;;;-3.86;74.08
76598;BME280;65486;53.144;18.134;2023-03-01T02:00:19;102412.98;;;-3.87;74.15
76598;BME280;65486;53.144;18.134;2023-03-01T02:02:48;102414.10;;;-3.88;74.25
76598;BME280;65486;53.144;18.134;2023-03-01T02:06:21;102419.74;;;-3.89;74.30
76598;BME280;65486;53.144;18.134;2023-03-01T02:08:32;102422.02;;;-3.91;74.27
76598;BME280;65486;53.144;18.134;2023-03-01T02:11:00;102419.40;;;-3.90;74.44
76598;BME280;65486;53.144;18.134;2023-03-01T02:13:27;102422.57;;;-3.88;74.33
76598;BME280;65486;53.144;18.134;2023-03-01T02:15:54;102415.70;;;-3.87;74.42
76598;BME280;65486;53.144;18.134;2023-03-01T02:18:23;102415.17;;;-3.88;74.18
76598;BME280;65486;53.144;18.134;2023-03-01T02:21:37;102418.67;;;-3.89;74.18
76598;BME280;65486;53.144;18.134;2023-03-01T02:26:55;102414.77;;;-3.90;74.49
76598;BME280;65486;53.144;18.134;2023-03-01T02:29:23;102412.88;;;-3.89;74.43
76598;BME280;65486;53.144;18.134;2023-03-01T02:31:52;102415.19;;;-3.88;74.35
76598;BME280;65486;53.144;18.134;2023-03-01T02:34:22;102413.59;;;-3.88;74.21
76598;BME280;65486;53.144;18.134;2023-03-01T02:36:57;102406.59;;;-3.89;74.35
76598;BME280;65486;53.144;18.134;2023-03-01T02:39:42;102401.00;;;-3.88;74.32
76598;BME280;65486;53.144;18.134;2023-03-01T02:42:45;102401.41;;;-3.89;74.27
76598;BME280;65486;53.144;18.134;2023-03-01T02:45:26;102389.98;;;-3.90;74.42
76598;BME280;65486;53.144;18.134;2023-03-01T02:47:56;102391.39;;;-3.89;74.27
76598;BME280;65486;53.144;18.134;2023-03-01T02:55:41;102387.69;;;-3.90;74.28
76598;BME280;65486;53.144;18.134;2023-03-01T02:58:11;102380.96;;;-3.90;74.39
76598;BME280;65486;53.144;18.134;2023-03-01T03:00:43;102383.65;;;-3.89;74.23
76598;BME280;65486;53.144;18.134;2023-03-01T03:03:17;102383.43;;;-3.89;74.27
76598;BME280;65486;53.144;18.134;2023-03-01T03:05:45;102381.83;;;-3.89;74.23
76598;BME280;65486;53.144;18.134;2023-03-01T03:08:12;102384.90;;;-3.89;74.34
76598;BME280;65486;53.144;18.134;2023-03-01T03:10:40;102386.15;;;-3.90;74.33
76598;BME280;65486;53.144;18.134;2023-03-01T03:13:11;102389.59;;;-3.90;74.42
76598;BME280;65486;53.144;18.134;2023-03-01T03:15:39;102392.08;;;-3.89;74.39
76598;BME280;65486;53.144;18.134;2023-03-01T03:18:13;102384.33;;;-3.89;74.31
76598;BME280;65486;53.144;18.134;2023-03-01T03:20:42;102384.80;;;-3.88;74.28
76598;BME280;65486;53.144;18.134;2023-03-01T03:23:13;102378.83;;;-3.87;74.30
76598;BME280;65486;53.144;18.134;2023-03-01T03:25:41;102373.63;;;-3.87;74.53
76598;BME280;65486;53.144;18.134;2023-03-01T03:28:09;102371.34;;;-3.88;74.28
76598;BME280;65486;53.144;18.134;2023-03-01T03:30:39;102369.58;;;-3.88;74.36
76598;BME280;65486;53.144;18.134;2023-03-01T03:33:07;102359.61;;;-3.90;74.50
76598;BME280;65486;53.144;18.134;2023-03-01T03:35:43;102350.42;;;-3.89;74.27
76598;BME280;65486;53.144;18.134;2023-03-01T03:38:13;102352.50;;;-3.88;74.37
76598;BME280;65486;53.144;18.134;2023-03-01T03:40:59;102347.66;;;-3.89;74.39
76598;BME280;65486;53.144;18.134;2023-03-01T03:43:45;102343.42;;;-3.90;74.39
76598;BME280;65486;53.144;18.134;2023-03-01T03:46:21;102335.44;;;-3.94;74.62
76598;BME280;65486;53.144;18.134;2023-03-01T03:48:47;102340.44;;;-3.91;74.35
76598;BME280;65486;53.144;18.134;2023-03-01T03:51:16;102341.27;;;-3.93;74.61
76598;BME280;65486;53.144;18.134;2023-03-01T03:53:44;102347.95;;;-3.96;74.64
76598;BME280;65486;53.144;18.134;2023-03-01T03:56:12;102353.25;;;-3.98;74.67
76598;BME280;65486;53.144;18.134;2023-03-01T03:58:47;102345.16;;;-4.03;74.66
76598;BME280;65486;53.144;18.134;2023-03-01T04:01:22;102351.51;;;-3.98;74.72
76598;BME280;65486;53.144;18.134;2023-03-01T04:03:51;102355.88;;;-3.96;74.78
76598;BME280;65486;53.144;18.134;2023-03-01T04:06:41;102364.02;;;-3.94;74.76
76598;BME280;65486;53.144;18.134;2023-03-01T04:09:11;102361.92;;;-3.92;74.79
76598;BME280;65486;53.144;18.134;2023-03-01T04:11:38;102361.70;;;-3.92;74.67
76598;BME280;65486;53.144;18.134;2023-03-01T04:14:05;102368.80;;;-3.93;74.90
76598;BME280;65486;53.144;18.134;2023-03-01T04:16:31;102365.92;;;-3.93;74.84
76598;BME280;65486;53.144;18.134;2023-03-01T04:19:00;102359.73;;;-3.95;74.78
76598;BME280;65486;53.144;18.134;2023-03-01T04:21:31;102361.11;;;-3.97;74.72
76598;BME280;65486;53.144;18.134;2023-03-01T04:24:01;102367.06;;;-3.97;74.68
76598;BME280;65486;53.144;18.134;2023-03-01T04:26:32;102366.04;;;-3.98;74.68
76598;BME280;65486;53.144;18.134;2023-03-01T04:29:08;102359.95;;;-3.98;74.62
76598;BME280;65486;53.144;18.134;2023-03-01T04:31:36;102351.16;;;-3.99;74.75
76598;BME280;65486;53.144;18.134;2023-03-01T04:34:03;102347.08;;;-4.00;74.71
76598;BME280;65486;53.144;18.134;2023-03-01T04:36:29;102343.39;;;-3.98;74.76
76598;BME280;65486;53.144;18.134;2023-03-01T04:38:56;102342.42;;;-3.96;74.92
76598;BME280;65486;53.144;18.134;2023-03-01T04:41:24;102340.46;;;-3.97;74.85
76598;BME280;65486;53.144;18.134;2023-03-01T04:43:52;102341.15;;;-3.96;74.92
76598;BME280;65486;53.144;18.134;2023-03-01T04:46:20;102342.15;;;-3.95;74.93
76598;BME280;65486;53.144;18.134;2023-03-01T04:48:48;102335.35;;;-3.95;75.06
76598;BME280;65486;53.144;18.134;2023-03-01T04:51:15;102335.28;;;-3.94;75.01
76598;BME280;65486;53.144;18.134;2023-03-01T04:53:43;102334.84;;;-3.93;75.06
76598;BME280;65486;53.144;18.134;2023-03-01T04:56:11;102327.96;;;-3.92;75.07
76598;BME280;65486;53.144;18.134;2023-03-01T04:58:37;102319.64;;;-3.91;74.97
76598;BME280;65486;53.144;18.134;2023-03-01T05:01:18;102315.77;;;-3.89;75.04
76598;BME280;65486;53.144;18.134;2023-03-01T05:03:52;102320.57;;;-3.89;74.99
76598;BME280;65486;53.144;18.134;2023-03-01T05:06:39;102321.61;;;-3.91;74.89
76598;BME280;65486;53.144;18.134;2023-03-01T05:09:22;102327.61;;;-3.92;75.30
76598;BME280;65486;53.144;18.134;2023-03-01T05:11:54;102331.95;;;-3.93;75.02
76598;BME280;65486;53.144;18.134;2023-03-01T05:14:20;102334.57;;;-3.94;74.98
76598;BME280;65486;53.144;18.134;2023-03-01T05:16:47;102335.27;;;-3.97;75.11
76598;BME280;65486;53.144;18.134;2023-03-01T05:19:14;102336.58;;;-3.98;75.04
76598;BME280;65486;53.144;18.134;2023-03-01T05:21:51;102334.38;;;-4.00;75.20
76598;BME280;65486;53.144;18.134;2023-03-01T05:24:46;102330.30;;;-4.01;75.41
76598;BME280;65486;53.144;18.134;2023-03-01T05:27:13;102331.17;;;-4.01;75.29
76598;BME280;65486;53.144;18.134;2023-03-01T05:29:39;102336.27;;;-3.99;75.27
76598;BME280;65486;53.144;18.134;2023-03-01T05:32:06;102329.45;;;-3.99;75.25
76598;BME280;65486;53.144;18.134;2023-03-01T05:34:36;102326.27;;;-4.00;75.31
76598;BME280;65486;53.144;18.134;2023-03-01T05:37:04;102327.77;;;-4.01;75.47
76598;BME280;65486;53.144;18.134;2023-03-01T05:39:31;102331.94;;;-4.02;75.51
76598;BME280;65486;53.144;18.134;2023-03-01T05:41:59;102329.58;;;-4.01;75.45
76598;BME280;65486;53.144;18.134;2023-03-01T05:44:29;102328.01;;;-3.99;75.44
76598;BME280;65486;53.144;18.134;2023-03-01T05:47:00;102326.52;;;-3.98;75.51
76598;BME280;65486;53.144;18.134;2023-03-01T05:49:45;102328.70;;;-3.96;75.46
76598;BME280;65486;53.144;18.134;2023-03-01T05:52:18;102327.44;;;-3.92;75.51
76598;BME280;65486;53.144;18.134;2023-03-01T05:54:45;102329.18;;;-3.89;75.40
76598;BME280;65486;53.144;18.134;2023-03-01T05:57:12;102333.14;;;-3.86;75.36
76598;BME280;65486;53.144;18.134;2023-03-01T05:59:40;102331.94;;;-3.81;75.55
76598;BME280;65486;53.144;18.134;2023-03-01T06:02:13;102329.48;;;-3.76;75.40
76598;BME280;65486;53.144;18.134;2023-03-01T06:04:40;102333.42;;;-3.70;75.35
76598;BME280;65486;53.144;18.134;2023-03-01T06:07:10;102336.00;;;-3.62;75.36
76598;BME280;65486;53.144;18.134;2023-03-01T06:09:39;102330.91;;;-3.55;75.02
76598;BME280;65486;53.144;18.134;2023-03-01T06:12:05;102335.52;;;-3.49;75.24
76598;BME280;65486;53.144;18.134;2023-03-01T06:14:33;102331.42;;;-3.40;75.07
76598;BME280;65486;53.144;18.134;2023-03-01T06:16:59;102333.82;;;-3.32;74.70
76598;BME280;65486;53.144;18.134;2023-03-01T06:19:26;102334.07;;;-3.22;74.76
76598;BME280;65486;53.144;18.134;2023-03-01T06:21:52;102334.54;;;-3.13;74.56
76598;BME280;65486;53.144;18.134;2023-03-01T06:27:07;102340.80;;;-2.90;74.36
76598;BME280;65486;53.144;18.134;2023-03-01T06:29:36;102343.92;;;-2.77;74.22
76598;BME280;65486;53.144;18.134;2023-03-01T06:32:07;102339.09;;;-2.64;73.87
76598;BME280;65486;53.144;18.134;2023-03-01T06:34:34;102338.46;;;-2.51;73.64
76598;BME280;65486;53.144;18.134;2023-03-01T06:37:01;102340.95;;;-2.37;73.63
76598;BME280;65486;53.144;18.134;2023-03-01T06:39:32;102345.96;;;-2.21;73.15
76598;BME280;65486;53.144;18.134;2023-03-01T06:42:12;102346.54;;;-2.05;72.84
76598;BME280;65486;53.144;18.134;2023-03-01T06:44:39;102348.70;;;-1.84;72.39
76598;BME280;65486;53.144;18.134;2023-03-01T06:47:08;102344.08;;;-1.64;71.99
76598;BME280;65486;53.144;18.134;2023-03-01T06:49:36;102344.17;;;-1.47;71.49
76598;BME280;65486;53.144;18.134;2023-03-01T06:52:04;102345.92;;;-1.29;71.19
76598;BME280;65486;53.144;18.134;2023-03-01T06:54:30;102343.93;;;-1.06;70.95
76598;BME280;65486;53.144;18.134;2023-03-01T06:56:57;102332.55;;;-0.84;70.42
76598;BME280;65486;53.144;18.134;2023-03-01T06:59:23;102324.95;;;-0.57;69.70
76598;BME280;65486;53.144;18.134;2023-03-01T07:01:51;102323.77;;;-0.17;69.02
76598;BME280;65486;53.144;18.134;2023-03-01T07:04:18;102326.55;;;0.36;67.86
76598;BME280;65486;53.144;18.134;2023-03-01T07:06:44;102321.21;;;0.96;67.09
76598;BME280;65486;53.144;18.134;2023-03-01T07:09:13;102318.98;;;1.58;66.18
76598;BME280;65486;53.144;18.134;2023-03-01T07:11:39;102314.76;;;2.06;65.10
76598;BME280;65486;53.144;18.134;2023-03-01T07:14:08;102319.66;;;2.60;64.27
76598;BME280;65486;53.144;18.134;2023-03-01T07:16:35;102308.63;;;3.37;62.18
76598;BME280;65486;53.144;18.134;2023-03-01T07:19:01;102305.34;;;4.25;60.26
76598;BME280;65486;53.144;18.134;2023-03-01T07:21:27;102297.50;;;5.15;58.32
76598;BME280;65486;53.144;18.134;2023-03-01T07:23:54;102293.09;;;6.04;57.38
76598;BME280;65486;53.144;18.134;2023-03-01T07:26:24;102282.67;;;6.91;55.33
76598;BME280;65486;53.144;18.134;2023-03-01T07:28:51;102276.66;;;7.63;52.84
76598;BME280;65486;53.144;18.134;2023-03-01T07:31:24;102252.51;;;8.04;52.10
76598;BME280;65486;53.144;18.134;2023-03-01T07:33:58;102244.88;;;8.51;51.83
76598;BME280;65486;53.144;18.134;2023-03-01T07:36:24;102275.05;;;9.06;49.98
76598;BME280;65486;53.144;18.134;2023-03-01T07:38:51;102269.54;;;9.22;50.24
76598;BME280;65486;53.144;18.134;2023-03-01T07:41:18;102270.15;;;9.32;49.76
76598;BME280;65486;53.144;18.134;2023-03-01T07:43:44;102268.80;;;9.32;48.90
76598;BME280;65486;53.144;18.134;2023-03-01T07:46:22;102267.20;;;9.60;48.90
76598;BME280;65486;53.144;18.134;2023-03-01T07:49:03;102273.19;;;10.16;47.60
76598;BME280;65486;53.144;18.134;2023-03-01T07:51:32;102267.02;;;10.85;45.48
76598;BME280;65486;53.144;18.134;2023-03-01T07:53:58;102256.52;;;11.21;44.63
76598;BME280;65486;53.144;18.134;2023-03-01T07:56:25;102258.16;;;11.49;45.10
76598;BME280;65486;53.144;18.134;2023-03-01T07:58:51;102254.55;;;11.78;43.46
76598;BME280;65486;53.144;18.134;2023-03-01T08:01:25;102253.41;;;11.92;42.55
76598;BME280;65486;53.144;18.134;2023-03-01T08:03:52;102251.35;;;12.20;42.46
76598;BME280;65486;53.144;18.134;2023-03-01T08:06:19;102252.31;;;12.57;41.10
76598;BME280;65486;53.144;18.134;2023-03-01T08:08:53;102244.54;;;12.51;40.20
76598;BME280;65486;53.144;18.134;2023-03-01T08:11:26;102245.91;;;12.25;40.74
76598;BME280;65486;53.144;18.134;2023-03-01T08:13:54;102249.21;;;12.19;42.19
76598;BME280;65486;53.144;18.134;2023-03-01T08:16:23;102254.08;;;12.24;41.27
76598;BME280;65486;53.144;18.134;2023-03-01T08:18:49;102253.18;;;12.00;41.07
76598;BME280;65486;53.144;18.134;2023-03-01T08:21:19;102262.23;;;11.83;41.09
76598;BME280;65486;53.144;18.134;2023-03-01T08:23:47;102263.50;;;11.80;41.60
76598;BME280;65486;53.144;18.134;2023-03-01T08:26:17;102263.73;;;11.75;40.71
76598;BME280;65486;53.144;18.134;2023-03-01T08:28:46;102263.00;;;11.52;40.96
76598;BME280;65486;53.144;18.134;2023-03-01T08:33:57;102262.77;;;11.34;41.63
76598;BME280;65486;53.144;18.134;2023-03-01T08:36:27;102262.95;;;11.81;40.61
76598;BME280;65486;53.144;18.134;2023-03-01T08:39:04;102253.19;;;12.58;39.74
76598;BME280;65486;53.144;18.134;2023-03-01T08:41:31;102244.86;;;13.16;37.64
76598;BME280;65486;53.144;18.134;2023-03-01T08:43:58;102249.95;;;13.58;37.44
76598;BME280;65486;53.144;18.134;2023-03-01T08:46:29;102246.36;;;14.19;36.88
76598;BME280;65486;53.144;18.134;2023-03-01T08:49:09;102241.00;;;14.81;35.28
76598;BME280;65486;53.144;18.134;2023-03-01T08:51:38;102246.69;;;15.24;35.08
76598;BME280;65486;53.144;18.134;2023-03-01T08:54:20;102245.25;;;15.73;35.44
76598;BME280;65486;53.144;18.134;2023-03-01T08:56:50;102242.81;;;16.25;34.34
76598;BME280;65486;53.144;18.134;2023-03-01T08:59:21;102242.36;;;16.57;34.23
76598;BME280;65486;53.144;18.134;2023-03-01T09:01:52;102239.84;;;16.83;33.00
76598;BME280;65486;53.144;18.134;2023-03-01T09:04:21;102244.17;;;17.00;32.62
76598;BME280;65486;53.144;18.134;2023-03-01T09:06:48;102238.69;;;17.35;32.91
76598;BME280;65486;53.144;18.134;2023-03-01T09:09:18;102243.55;;;17.75;32.18
76598;BME280;65486;53.144;18.134;2023-03-01T09:11:48;102242.09;;;18.13;32.24
76598;BME280;65486;53.144;18.134;2023-03-01T09:14:17;102243.08;;;18.47;31.35
76598;BME280;65486;53.144;18.134;2023-03-01T09:16:51;102240.29;;;18.72;30.49
76598;BME280;65486;53.144;18.134;2023-03-01T09:19:19;102235.29;;;18.85;30.73
76598;BME280;65486;53.144;18.134;2023-03-01T09:21:47;102234.83;;;19.05;30.24
76598;BME280;65486;53.144;18.134;2023-03-01T09:24:21;102233.05;;;19.10;29.88
76598;BME280;65486;53.144;18.134;2023-03-01T09:26:49;102235.44;;;19.09;29.99
76598;BME280;65486;53.144;18.134;2023-03-01T09:29:16;102237.11;;;19.12;30.06
76598;BME280;65486;53.144;18.134;2023-03-01T09:31:43;102240.45;;;19.13;30.13
76598;BME280;65486;53.144;18.134;2023-03-01T09:34:11;102233.45;;;19.10;30.03
76598;BME280;65486;53.144;18.134;2023-03-01T09:36:40;102227.10;;;19.07;30.17
76598;BME280;65486;53.144;18.134;2023-03-01T09:39:10;102223.19;;;18.84;30.33
76598;BME280;65486;53.144;18.134;2023-03-01T09:41:44;102219.36;;;18.69;30.35
76598;BME280;65486;53.144;18.134;2023-03-01T09:46:47;102215.42;;;19.03;29.55
76598;BME280;65486;53.144;18.134;2023-03-01T09:49:17;102213.95;;;19.02;29.77
76598;BME280;65486;53.144;18.134;2023-03-01T09:51:59;102218.77;;;19.17;29.71
76598;BME280;65486;53.144;18.134;2023-03-01T09:54:30;102212.41;;;19.38;29.58
76598;BME280;65486;53.144;18.134;2023-03-01T10:02:30;102208.09;;;20.07;28.98
76598;BME280;65486;53.144;18.134;2023-03-01T10:08:24;102206.91;;;20.21;28.24
76598;BME280;65486;53.144;18.134;2023-03-01T10:10:53;102199.27;;;20.20;28.19
76598;BME280;65486;53.144;18.134;2023-03-01T10:13:47;102196.51;;;20.13;28.44
76598;BME280;65486;53.144;18.134;2023-03-01T10:16:22;102193.06;;;20.18;28.65
76598;BME280;65486;53.144;18.134;2023-03-01T10:18:59;102190.23;;;20.28;28.98
76598;BME280;65486;53.144;18.134;2023-03-01T10:21:29;102186.92;;;20.56;27.88
76598;BME280;65486;53.144;18.134;2023-03-01T10:24:11;102176.30;;;20.55;27.83
76598;BME280;65486;53.144;18.134;2023-03-01T10:27:07;102165.95;;;20.59;28.33
76598;BME280;65486;53.144;18.134;2023-03-01T10:29:59;102162.98;;;20.80;28.36
76598;BME280;65486;53.144;18.134;2023-03-01T10:32:29;102157.45;;;20.86;27.46
76598;BME280;65486;53.144;18.134;2023-03-01T10:34:59;102156.81;;;20.73;27.81
76598;BME280;65486;53.144;18.134;2023-03-01T10:37:31;102158.98;;;20.65;28.18
76598;BME280;65486;53.144;18.134;2023-03-01T10:40:11;102156.84;;;20.61;27.88
76598;BME280;65486;53.144;18.134;2023-03-01T10:42:46;102153.10;;;20.54;27.96
76598;BME280;65486;53.144;18.134;2023-03-01T10:48:17;102147.69;;;20.08;28.77
76598;BME280;65486;53.144;18.134;2023-03-01T10:50:50;102143.26;;;18.90;29.53
76598;BME280;65486;53.144;18.134;2023-03-01T10:53:32;102147.09;;;17.82;30.69
76598;BME280;65486;53.144;18.134;2023-03-01T10:58:30;102138.42;;;15.80;33.08
76598;BME280;65486;53.144;18.134;2023-03-01T11:03:43;102142.40;;;14.19;35.65
76598;BME280;65486;53.144;18.134;2023-03-01T11:08:45;102139.80;;;12.96;37.58
76598;BME280;65486;53.144;18.134;2023-03-01T11:11:21;102134.42;;;12.46;38.57
76598;BME280;65486;53.144;18.134;2023-03-01T11:16:27;102140.91;;;11.72;39.96
76598;BME280;65486;53.144;18.134;2023-03-01T11:19:20;102136.90;;;11.44;40.25
76598;BME280;65486;53.144;18.134;2023-03-01T11:21:52;102134.73;;;11.09;41.68
76598;BME280;65486;53.144;18.134;2023-03-01T11:24:51;102133.52;;;10.81;42.24
76598;BME280;65486;53.144;18.134;2023-03-01T11:27:32;102133.10;;;10.55;42.73
76598;BME280;65486;53.144;18.134;2023-03-01T11:30:50;102130.98;;;10.35;42.83
76598;BME280;65486;53.144;18.134;2023-03-01T11:33:45;102134.38;;;10.11;43.35
76598;BME280;65486;53.144;18.134;2023-03-01T11:36:43;102130.64;;;9.92;44.42
76598;BME280;65486;53.144;18.134;2023-03-01T11:40:05;102123.48;;;9.79;44.30
76598;BME280;65486;53.144;18.134;2023-03-01T11:42:46;102122.11;;;9.61;45.14
76598;BME280;65486;53.144;18.134;2023-03-01T11:45:14;102120.77;;;9.48;44.95
76598;BME280;65486;53.144;18.134;2023-03-01T11:48:48;102119.64;;;9.41;45.07
76598;BME280;65486;53.144;18.134;2023-03-01T11:51:23;102119.40;;;9.35;45.37
76598;BME280;65486;53.144;18.134;2023-03-01T11:54:16;102127.13;;;9.29;45.70
76598;BME280;65486;53.144;18.134;2023-03-01T11:56:50;102124.10;;;9.23;45.36
76598;BME280;65486;53.144;18.134;2023-03-01T12:00:14;102126.43;;;9.18;45.75
76598;BME280;65486;53.144;18.134;2023-03-01T12:05:57;102133.98;;;8.96;46.09
76598;BME280;65486;53.144;18.134;2023-03-01T12:11:49;102134.09;;;8.78;47.19
76598;BME280;65486;53.144;18.134;2023-03-01T12:14:48;102133.73;;;8.72;47.28
76598;BME280;65486;53.144;18.134;2023-03-01T12:22:53;102127.59;;;8.52;48.73
76598;BME280;65486;53.144;18.134;2023-03-01T12:39:45;102121.77;;;8.26;50.68
76598;BME280;65486;53.144;18.134;2023-03-01T12:42:30;102114.77;;;8.22;50.77
76598;BME280;65486;53.144;18.134;2023-03-01T12:51:11;102114.00;;;8.13;51.01
76598;BME280;65486;53.144;18.134;2023-03-01T12:53:54;102108.38;;;8.07;51.36
76598;BME280;65486;53.144;18.134;2023-03-01T12:56:28;102108.01;;;8.03;51.51
76598;BME280;65486;53.144;18.134;2023-03-01T13:20:48;102093.36;;;7.87;52.34
76598;BME280;65486;53.144;18.134;2023-03-01T13:23:36;102092.13;;;7.85;52.19
76598;BME280;65486;53.144;18.134;2023-03-01T13:26:18;102087.10;;;7.84;52.49
76598;BME280;65486;53.144;18.134;2023-03-01T13:28:54;102092.39;;;7.84;52.63
76598;BME280;65486;53.144;18.134;2023-03-01T13:34:41;102091.19;;;7.84;52.85
76598;BME280;65486;53.144;18.134;2023-03-01T13:37:20;102087.27;;;7.84;53.16
76598;BME280;65486;53.144;18.134;2023-03-01T13:39:52;102081.46;;;7.84;53.05
76598;BME280;65486;53.144;18.134;2023-03-01T13:42:34;102083.66;;;7.84;53.24
76598;BME280;65486;53.144;18.134;2023-03-01T13:45:40;102079.92;;;7.84;53.18
76598;BME280;65486;53.144;18.134;2023-03-01T13:48:30;102079.54;;;7.83;52.95
76598;BME280;65486;53.144;18.134;2023-03-01T13:51:03;102076.02;;;7.81;53.15
76598;BME280;65486;53.144;18.134;2023-03-01T13:53:38;102073.94;;;7.80;53.43
76598;BME280;65486;53.144;18.134;2023-03-01T13:56:14;102068.49;;;7.79;53.35
76598;BME280;65486;53.144;18.134;2023-03-01T13:59:18;102068.30;;;7.79;53.22
76598;BME280;65486;53.144;18.134;2023-03-01T14:02:02;102058.70;;;7.73;53.50
76598;BME280;65486;53.144;18.134;2023-03-01T14:04:33;102060.20;;;7.76;53.59
76598;BME280;65486;53.144;18.134;2023-03-01T14:07:11;102061.63;;;7.75;53.63
76598;BME280;65486;53.144;18.134;2023-03-01T14:09:58;102062.10;;;7.74;53.99
76598;BME280;65486;53.144;18.134;2023-03-01T14:12:52;102061.97;;;7.71;54.03
76598;BME280;65486;53.144;18.134;2023-03-01T14:15:49;102061.52;;;7.69;54.34
76598;BME280;65486;53.144;18.134;2023-03-01T14:18:38;102058.58;;;7.66;54.13
76598;BME280;65486;53.144;18.134;2023-03-01T14:21:09;102052.07;;;7.63;54.13
76598;BME280;65486;53.144;18.134;2023-03-01T14:23:38;102048.56;;;7.62;54.49
76598;BME280;65486;53.144;18.134;2023-03-01T14:26:08;102049.05;;;7.59;54.51
76598;BME280;65486;53.144;18.134;2023-03-01T14:28:36;102051.24;;;7.56;54.68
76598;BME280;65486;53.144;18.134;2023-03-01T14:33:59;102042.29;;;7.45;55.04
76598;BME280;65486;53.144;18.134;2023-03-01T14:36:29;102044.30;;;7.47;55.07
76598;BME280;65486;53.144;18.134;2023-03-01T14:39:01;102046.58;;;7.43;55.15
76598;BME280;65486;53.144;18.134;2023-03-01T14:41:36;102048.21;;;7.38;55.15
76598;BME280;65486;53.144;18.134;2023-03-01T14:44:16;102041.36;;;7.34;55.31
76598;BME280;65486;53.144;18.134;2023-03-01T14:46:52;102037.95;;;7.30;55.31
76598;BME280;65486;53.144;18.134;2023-03-01T14:49:23;102036.52;;;7.26;55.67
76598;BME280;65486;53.144;18.134;2023-03-01T14:54:37;102033.70;;;7.19;55.82
76598;BME280;65486;53.144;18.134;2023-03-01T14:57:25;102033.86;;;7.16;55.91
76598;BME280;65486;53.144;18.134;2023-03-01T14:59:55;102033.42;;;7.11;56.32